sensor_id;sensor_type;location;lat;lon;timestamp;pressure;altitude;pressure_sealevel;temperature;humidity
45350;BME280;31086;51.702;-1.106;2022-08-05T00:00:15;101239.54;;;17.23;45.68
45350;BME280;31086;51.702;-1.106;2022-08-05T00:02:43;101239.20;;;17.28;45.54
45350;BME280;31086;51.702;-1.106;2022-08-05T00:05:11;101241.98;;;17.40;45.40
45350;BME280;31086;51.702;-1.106;2022-08-05T00:07:38;101241.88;;;17.95;45.18
45350;BME280;31086;51.702;-1.106;2022-08-05T00:10:06;101242.12;;;17.75;45.33
45350;BME280;31086;51.702;-1.106;2022-08-05T00:12:33;101244.97;;;17.55;45.36
45350;BME280;31086;51.702;-1.106;2022-08-05T00:15:00;101243.27;;;17.63;45.44
45350;BME280;31086;51.702;-1.106;2022-08-05T00:17:28;101244.25;;;17.40;45.73
45350;BME280;31086;51.702;-1.106;2022-08-05T00:19:55;101250.30;;;17.06;45.51
45350;BME280;31086;51.702;-1.106;2022-08-05T00:22:22;101254.09;;;17.66;45.15
45350;BME280;31086;51.702;-1.106;2022-08-05T00:24:49;101256.51;;;17.68;45.39
45350;BME280;31086;51.702;-1.106;2022-08-05T00:27:16;101258.04;;;17.74;45.39
45350;BME280;31086;51.702;-1.106;2022-08-05T00:29:44;101255.93;;;17.02;45.72
45350;BME280;31086;51.702;-1.106;2022-08-05T00:32:11;101257.22;;;17.80;45.43
45350;BME280;31086;51.702;-1.106;2022-08-05T00:34:38;101257.61;;;17.36;45.41
45350;BME280;31086;51.702;-1.106;2022-08-05T00:37:06;101253.30;;;17.67;45.72
45350;BME280;31086;51.702;-1.106;2022-08-05T00:39:33;101256.16;;;17.38;45.55
45350;BME280;31086;51.702;-1.106;2022-08-05T00:42:00;101260.89;;;17.60;45.84
45350;BME280;31086;51.702;-1.106;2022-08-05T00:44:27;101264.29;;;17.46;46.08
45350;BME280;31086;51.702;-1.106;2022-08-05T00:46:55;101257.55;;;17.60;46.00
45350;BME280;31086;51.702;-1.106;2022-08-05T00:49:22;101252.54;;;17.58;45.77
45350;BME280;31086;51.702;-1.106;2022-08-05T00:51:49;101253.76;;;16.78;46.70
45350;BME280;31086;51.702;-1.106;2022-08-05T00:54:16;101257.13;;;17.64;46.12
45350;BME280;31086;51.702;-1.106;2022-08-05T00:56:44;101259.22;;;17.57;45.95
45350;BME280;31086;51.702;-1.106;2022-08-05T00:59:11;101256.77;;;17.49;46.07
45350;BME280;31086;51.702;-1.106;2022-08-05T01:01:39;101260.56;;;17.58;45.77
45350;BME280;31086;51.702;-1.106;2022-08-05T01:04:06;101256.91;;;17.86;45.84
45350;BME280;31086;51.702;-1.106;2022-08-05T01:06:33;101259.09;;;17.98;46.04
45350;BME280;31086;51.702;-1.106;2022-08-05T01:09:00;101258.73;;;17.57;46.19
45350;BME280;31086;51.702;-1.106;2022-08-05T01:11:32;101266.31;;;17.56;46.58
45350;BME280;31086;51.702;-1.106;2022-08-05T01:14:05;101264.68;;;17.56;46.47
45350;BME280;31086;51.702;-1.106;2022-08-05T01:16:43;101265.08;;;17.40;46.84
45350;BME280;31086;51.702;-1.106;2022-08-05T01:19:24;101262.22;;;17.35;47.17
45350;BME280;31086;51.702;-1.106;2022-08-05T01:22:08;101259.01;;;17.30;47.36
45350;BME280;31086;51.702;-1.106;2022-08-05T01:25:02;101257.78;;;17.53;47.12
45350;BME280;31086;51.702;-1.106;2022-08-05T01:27:48;101256.43;;;17.49;47.09
45350;BME280;31086;51.702;-1.106;2022-08-05T01:30:20;101254.94;;;17.25;47.51
45350;BME280;31086;51.702;-1.106;2022-08-05T01:32:49;101261.03;;;17.22;47.89
45350;BME280;31086;51.702;-1.106;2022-08-05T01:35:18;101264.17;;;17.54;47.92
45350;BME280;31086;51.702;-1.106;2022-08-05T01:37:52;101269.41;;;16.83;48.04
45350;BME280;31086;51.702;-1.106;2022-08-05T01:40:21;101274.17;;;16.48;48.97
45350;BME280;31086;51.702;-1.106;2022-08-05T01:42:52;101268.36;;;17.00;48.25
45350;BME280;31086;51.702;-1.106;2022-08-05T01:45:20;101266.48;;;17.55;47.82
45350;BME280;31086;51.702;-1.106;2022-08-05T01:47:48;101266.77;;;17.25;48.04
45350;BME280;31086;51.702;-1.106;2022-08-05T01:50:19;101267.09;;;17.39;47.91
45350;BME280;31086;51.702;-1.106;2022-08-05T01:52:48;101266.70;;;17.50;47.82
45350;BME280;31086;51.702;-1.106;2022-08-05T01:55:19;101275.03;;;17.84;47.59
45350;BME280;31086;51.702;-1.106;2022-08-05T01:57:50;101282.09;;;17.54;47.51
45350;BME280;31086;51.702;-1.106;2022-08-05T02:00:19;101284.49;;;17.73;47.56
45350;BME280;31086;51.702;-1.106;2022-08-05T02:02:52;101282.23;;;17.16;47.98
45350;BME280;31086;51.702;-1.106;2022-08-05T02:05:24;101288.77;;;17.63;48.08
45350;BME280;31086;51.702;-1.106;2022-08-05T02:07:53;101299.81;;;17.31;48.22
45350;BME280;31086;51.702;-1.106;2022-08-05T02:10:20;101298.09;;;16.93;48.52
45350;BME280;31086;51.702;-1.106;2022-08-05T02:12:53;101302.91;;;16.96;48.70
45350;BME280;31086;51.702;-1.106;2022-08-05T02:15:24;101293.40;;;17.26;48.69
45350;BME280;31086;51.702;-1.106;2022-08-05T02:17:56;101296.64;;;17.43;48.21
45350;BME280;31086;51.702;-1.106;2022-08-05T02:20:29;101291.97;;;17.24;48.70
45350;BME280;31086;51.702;-1.106;2022-08-05T02:23:00;101292.10;;;16.84;49.06
45350;BME280;31086;51.702;-1.106;2022-08-05T02:25:33;101298.09;;;16.80;49.42
45350;BME280;31086;51.702;-1.106;2022-08-05T02:28:02;101298.51;;;16.44;49.92
45350;BME280;31086;51.702;-1.106;2022-08-05T02:30:35;101297.00;;;16.30;50.45
45350;BME280;31086;51.702;-1.106;2022-08-05T02:33:06;101300.35;;;16.15;50.86
45350;BME280;31086;51.702;-1.106;2022-08-05T02:35:36;101298.17;;;16.40;50.37
45350;BME280;31086;51.702;-1.106;2022-08-05T02:38:06;101298.44;;;16.62;50.19
45350;BME280;31086;51.702;-1.106;2022-08-05T02:40:34;101295.36;;;16.87;50.04
45350;BME280;31086;51.702;-1.106;2022-08-05T02:43:03;101292.78;;;16.50;49.99
45350;BME280;31086;51.702;-1.106;2022-08-05T02:45:32;101291.88;;;16.68;49.85
45350;BME280;31086;51.702;-1.106;2022-08-05T02:48:00;101292.57;;;16.44;50.17
45350;BME280;31086;51.702;-1.106;2022-08-05T02:50:28;101291.17;;;17.22;49.44
45350;BME280;31086;51.702;-1.106;2022-08-05T02:52:56;101288.82;;;16.80;49.95
45350;BME280;31086;51.702;-1.106;2022-08-05T02:55:24;101287.04;;;16.88;49.90
45350;BME280;31086;51.702;-1.106;2022-08-05T02:57:52;101293.12;;;16.71;49.77
45350;BME280;31086;51.702;-1.106;2022-08-05T03:00:20;101299.36;;;16.72;49.78
45350;BME280;31086;51.702;-1.106;2022-08-05T03:02:47;101304.42;;;16.55;49.74
45350;BME280;31086;51.702;-1.106;2022-08-05T03:05:16;101307.59;;;16.74;49.80
45350;BME280;31086;51.702;-1.106;2022-08-05T03:07:45;101307.70;;;16.74;49.86
45350;BME280;31086;51.702;-1.106;2022-08-05T03:10:14;101306.96;;;16.59;50.10
45350;BME280;31086;51.702;-1.106;2022-08-05T03:12:42;101307.39;;;16.58;50.26
45350;BME280;31086;51.702;-1.106;2022-08-05T03:15:10;101311.51;;;16.76;50.28
45350;BME280;31086;51.702;-1.106;2022-08-05T03:17:38;101312.86;;;16.55;50.58
45350;BME280;31086;51.702;-1.106;2022-08-05T03:20:06;101315.91;;;16.39;50.48
45350;BME280;31086;51.702;-1.106;2022-08-05T03:22:34;101317.32;;;16.75;50.08
45350;BME280;31086;51.702;-1.106;2022-08-05T03:25:01;101316.57;;;16.75;50.37
45350;BME280;31086;51.702;-1.106;2022-08-05T03:27:28;101313.73;;;16.61;50.17
45350;BME280;31086;51.702;-1.106;2022-08-05T03:29:56;101313.89;;;16.57;50.26
45350;BME280;31086;51.702;-1.106;2022-08-05T03:32:23;101320.28;;;16.41;50.72
45350;BME280;31086;51.702;-1.106;2022-08-05T03:34:51;101321.31;;;16.69;50.21
45350;BME280;31086;51.702;-1.106;2022-08-05T03:37:19;101322.76;;;16.53;50.33
45350;BME280;31086;51.702;-1.106;2022-08-05T03:39:55;101328.83;;;16.12;50.78
45350;BME280;31086;51.702;-1.106;2022-08-05T03:42:23;101332.21;;;16.18;51.12
45350;BME280;31086;51.702;-1.106;2022-08-05T03:44:50;101332.23;;;15.96;51.10
45350;BME280;31086;51.702;-1.106;2022-08-05T03:47:17;101333.26;;;16.16;51.48
45350;BME280;31086;51.702;-1.106;2022-08-05T03:49:44;101334.46;;;16.40;51.14
45350;BME280;31086;51.702;-1.106;2022-08-05T03:52:18;101334.26;;;16.39;51.14
45350;BME280;31086;51.702;-1.106;2022-08-05T03:54:53;101335.97;;;15.82;51.19
45350;BME280;31086;51.702;-1.106;2022-08-05T03:57:25;101340.86;;;16.18;51.11
45350;BME280;31086;51.702;-1.106;2022-08-05T03:59:56;101339.49;;;15.83;51.17
45350;BME280;31086;51.702;-1.106;2022-08-05T04:02:28;101343.85;;;16.43;51.00
45350;BME280;31086;51.702;-1.106;2022-08-05T04:04:58;101346.33;;;15.73;51.52
45350;BME280;31086;51.702;-1.106;2022-08-05T04:07:26;101346.23;;;15.67;51.91
45350;BME280;31086;51.702;-1.106;2022-08-05T04:09:54;101347.13;;;15.69;51.85
45350;BME280;31086;51.702;-1.106;2022-08-05T04:12:22;101351.94;;;16.12;51.29
45350;BME280;31086;51.702;-1.106;2022-08-05T04:14:50;101350.82;;;15.89;51.47
45350;BME280;31086;51.702;-1.106;2022-08-05T04:17:18;101351.12;;;15.87;51.12
45350;BME280;31086;51.702;-1.106;2022-08-05T04:19:47;101360.55;;;15.73;51.57
45350;BME280;31086;51.702;-1.106;2022-08-05T04:22:15;101365.38;;;15.54;51.83
45350;BME280;31086;51.702;-1.106;2022-08-05T04:24:44;101367.82;;;15.35;52.03
45350;BME280;31086;51.702;-1.106;2022-08-05T04:27:12;101367.63;;;15.39;51.94
45350;BME280;31086;51.702;-1.106;2022-08-05T04:29:39;101365.95;;;15.48;51.86
45350;BME280;31086;51.702;-1.106;2022-08-05T04:32:08;101369.30;;;15.49;52.22
45350;BME280;31086;51.702;-1.106;2022-08-05T04:34:35;101368.01;;;15.69;51.63
45350;BME280;31086;51.702;-1.106;2022-08-05T04:37:03;101369.19;;;15.33;51.86
45350;BME280;31086;51.702;-1.106;2022-08-05T04:39:31;101372.10;;;15.53;51.91
45350;BME280;31086;51.702;-1.106;2022-08-05T04:41:58;101373.46;;;15.18;52.08
45350;BME280;31086;51.702;-1.106;2022-08-05T04:44:26;101375.53;;;15.34;52.13
45350;BME280;31086;51.702;-1.106;2022-08-05T04:46:53;101377.12;;;15.44;51.73
45350;BME280;31086;51.702;-1.106;2022-08-05T04:49:21;101377.41;;;15.80;51.53
45350;BME280;31086;51.702;-1.106;2022-08-05T04:51:48;101381.12;;;15.17;52.06
45350;BME280;31086;51.702;-1.106;2022-08-05T04:54:15;101379.79;;;15.51;51.93
45350;BME280;31086;51.702;-1.106;2022-08-05T04:56:43;101381.48;;;15.44;52.00
45350;BME280;31086;51.702;-1.106;2022-08-05T04:59:10;101374.52;;;15.76;51.57
45350;BME280;31086;51.702;-1.106;2022-08-05T05:01:37;101380.15;;;15.62;51.78
45350;BME280;31086;51.702;-1.106;2022-08-05T05:04:04;101380.98;;;15.66;51.73
45350;BME280;31086;51.702;-1.106;2022-08-05T05:06:32;101385.43;;;15.30;52.16
45350;BME280;31086;51.702;-1.106;2022-08-05T05:08:59;101388.73;;;15.17;52.46
45350;BME280;31086;51.702;-1.106;2022-08-05T05:11:26;101390.39;;;15.26;52.51
45350;BME280;31086;51.702;-1.106;2022-08-05T05:13:53;101391.31;;;14.93;52.93
45350;BME280;31086;51.702;-1.106;2022-08-05T05:16:20;101395.31;;;15.17;52.57
45350;BME280;31086;51.702;-1.106;2022-08-05T05:18:48;101395.05;;;15.15;52.25
45350;BME280;31086;51.702;-1.106;2022-08-05T05:21:15;101400.18;;;15.46;52.31
45350;BME280;31086;51.702;-1.106;2022-08-05T05:23:43;101402.80;;;15.30;52.36
45350;BME280;31086;51.702;-1.106;2022-08-05T05:26:10;101403.02;;;15.50;51.90
45350;BME280;31086;51.702;-1.106;2022-08-05T05:28:37;101409.26;;;15.37;52.06
45350;BME280;31086;51.702;-1.106;2022-08-05T05:31:04;101412.95;;;15.25;52.21
45350;BME280;31086;51.702;-1.106;2022-08-05T05:33:32;101410.33;;;15.84;51.83
45350;BME280;31086;51.702;-1.106;2022-08-05T05:35:59;101408.51;;;15.91;51.87
45350;BME280;31086;51.702;-1.106;2022-08-05T05:38:26;101413.41;;;15.78;52.15
45350;BME280;31086;51.702;-1.106;2022-08-05T05:40:54;101416.03;;;15.62;51.74
45350;BME280;31086;51.702;-1.106;2022-08-05T05:43:21;101413.36;;;15.83;52.13
45350;BME280;31086;51.702;-1.106;2022-08-05T05:45:48;101416.64;;;15.48;52.08
45350;BME280;31086;51.702;-1.106;2022-08-05T05:48:16;101420.65;;;15.49;52.72
45350;BME280;31086;51.702;-1.106;2022-08-05T05:50:43;101418.99;;;15.85;52.22
45350;BME280;31086;51.702;-1.106;2022-08-05T05:53:11;101422.89;;;16.01;52.00
45350;BME280;31086;51.702;-1.106;2022-08-05T05:55:38;101428.67;;;15.86;52.74
45350;BME280;31086;51.702;-1.106;2022-08-05T05:58:05;101433.85;;;15.74;52.94
45350;BME280;31086;51.702;-1.106;2022-08-05T06:00:32;101437.81;;;15.96;52.80
45350;BME280;31086;51.702;-1.106;2022-08-05T06:03:00;101442.46;;;15.89;52.74
45350;BME280;31086;51.702;-1.106;2022-08-05T06:05:28;101447.53;;;16.02;52.59
45350;BME280;31086;51.702;-1.106;2022-08-05T06:07:55;101445.33;;;15.86;52.35
45350;BME280;31086;51.702;-1.106;2022-08-05T06:10:22;101445.39;;;16.20;52.50
45350;BME280;31086;51.702;-1.106;2022-08-05T06:12:49;101443.35;;;16.02;52.16
45350;BME280;31086;51.702;-1.106;2022-08-05T06:15:16;101443.41;;;16.55;52.01
45350;BME280;31086;51.702;-1.106;2022-08-05T06:17:44;101446.55;;;16.47;52.14
45350;BME280;31086;51.702;-1.106;2022-08-05T06:20:11;101450.17;;;16.47;51.98
45350;BME280;31086;51.702;-1.106;2022-08-05T06:22:38;101451.13;;;16.55;51.71
45350;BME280;31086;51.702;-1.106;2022-08-05T06:25:07;101454.97;;;16.18;52.10
45350;BME280;31086;51.702;-1.106;2022-08-05T06:27:34;101459.54;;;16.00;52.17
45350;BME280;31086;51.702;-1.106;2022-08-05T06:30:01;101464.77;;;16.42;51.75
45350;BME280;31086;51.702;-1.106;2022-08-05T06:32:28;101466.73;;;16.40;51.74
45350;BME280;31086;51.702;-1.106;2022-08-05T06:34:56;101466.73;;;15.98;51.96
45350;BME280;31086;51.702;-1.106;2022-08-05T06:37:25;101472.65;;;16.48;50.86
45350;BME280;31086;51.702;-1.106;2022-08-05T06:39:53;101472.52;;;16.37;50.63
45350;BME280;31086;51.702;-1.106;2022-08-05T06:42:20;101471.01;;;16.50;50.69
45350;BME280;31086;51.702;-1.106;2022-08-05T06:44:47;101471.24;;;16.53;50.70
45350;BME280;31086;51.702;-1.106;2022-08-05T06:47:14;101470.54;;;16.30;50.83
45350;BME280;31086;51.702;-1.106;2022-08-05T06:49:42;101471.12;;;16.53;50.40
45350;BME280;31086;51.702;-1.106;2022-08-05T06:52:10;101472.19;;;16.66;50.63
45350;BME280;31086;51.702;-1.106;2022-08-05T06:54:37;101472.34;;;16.75;50.44
45350;BME280;31086;51.702;-1.106;2022-08-05T06:57:04;101465.43;;;16.47;50.89
45350;BME280;31086;51.702;-1.106;2022-08-05T06:59:31;101472.79;;;16.46;51.01
45350;BME280;31086;51.702;-1.106;2022-08-05T07:01:58;101479.14;;;16.18;51.17
45350;BME280;31086;51.702;-1.106;2022-08-05T07:04:26;101482.87;;;16.53;51.34
45350;BME280;31086;51.702;-1.106;2022-08-05T07:06:53;101486.09;;;16.52;50.47
45350;BME280;31086;51.702;-1.106;2022-08-05T07:09:20;101486.02;;;16.98;50.52
45350;BME280;31086;51.702;-1.106;2022-08-05T07:11:47;101486.97;;;16.26;51.23
45350;BME280;31086;51.702;-1.106;2022-08-05T07:14:14;101488.81;;;16.11;51.20
45350;BME280;31086;51.702;-1.106;2022-08-05T07:16:42;101488.62;;;16.33;51.12
45350;BME280;31086;51.702;-1.106;2022-08-05T07:19:10;101497.56;;;16.41;51.20
45350;BME280;31086;51.702;-1.106;2022-08-05T07:21:37;101499.80;;;16.62;51.08
45350;BME280;31086;51.702;-1.106;2022-08-05T07:24:05;101499.30;;;16.76;50.84
45350;BME280;31086;51.702;-1.106;2022-08-05T07:26:32;101507.23;;;16.84;50.58
45350;BME280;31086;51.702;-1.106;2022-08-05T07:28:59;101505.16;;;16.78;50.84
45350;BME280;31086;51.702;-1.106;2022-08-05T07:31:26;101506.79;;;17.01;50.82
45350;BME280;31086;51.702;-1.106;2022-08-05T07:33:53;101507.25;;;17.00;50.18
45350;BME280;31086;51.702;-1.106;2022-08-05T07:36:21;101505.69;;;17.08;50.33
45350;BME280;31086;51.702;-1.106;2022-08-05T07:38:48;101505.80;;;17.05;49.94
45350;BME280;31086;51.702;-1.106;2022-08-05T07:41:18;101503.30;;;17.17;49.86
45350;BME280;31086;51.702;-1.106;2022-08-05T07:43:46;101510.81;;;16.08;50.94
45350;BME280;31086;51.702;-1.106;2022-08-05T07:46:13;101509.29;;;16.90;50.72
45350;BME280;31086;51.702;-1.106;2022-08-05T07:48:40;101506.12;;;16.93;50.50
45350;BME280;31086;51.702;-1.106;2022-08-05T07:51:07;101507.65;;;17.22;49.79
45350;BME280;31086;51.702;-1.106;2022-08-05T07:53:34;101511.20;;;17.30;49.38
45350;BME280;31086;51.702;-1.106;2022-08-05T07:56:01;101520.73;;;16.60;50.85
45350;BME280;31086;51.702;-1.106;2022-08-05T07:58:28;101524.96;;;16.56;51.05
45350;BME280;31086;51.702;-1.106;2022-08-05T08:00:56;101528.90;;;16.41;51.42
45350;BME280;31086;51.702;-1.106;2022-08-05T08:03:23;101529.58;;;16.73;50.69
45350;BME280;31086;51.702;-1.106;2022-08-05T08:05:50;101529.47;;;16.82;50.68
45350;BME280;31086;51.702;-1.106;2022-08-05T08:08:18;101530.44;;;16.68;50.34
45350;BME280;31086;51.702;-1.106;2022-08-05T08:10:45;101527.46;;;16.90;50.08
45350;BME280;31086;51.702;-1.106;2022-08-05T08:13:13;101526.98;;;17.22;49.35
45350;BME280;31086;51.702;-1.106;2022-08-05T08:15:41;101533.47;;;17.05;49.92
45350;BME280;31086;51.702;-1.106;2022-08-05T08:18:08;101536.02;;;17.00;49.97
45350;BME280;31086;51.702;-1.106;2022-08-05T08:20:35;101535.75;;;16.97;50.36
45350;BME280;31086;51.702;-1.106;2022-08-05T08:23:02;101535.33;;;17.28;49.86
45350;BME280;31086;51.702;-1.106;2022-08-05T08:25:29;101536.42;;;17.24;49.12
45350;BME280;31086;51.702;-1.106;2022-08-05T08:27:56;101540.96;;;16.88;50.09
45350;BME280;31086;51.702;-1.106;2022-08-05T08:30:24;101542.53;;;17.52;49.72
45350;BME280;31086;51.702;-1.106;2022-08-05T08:32:51;101545.79;;;17.37;49.50
45350;BME280;31086;51.702;-1.106;2022-08-05T08:35:18;101543.93;;;17.82;49.25
45350;BME280;31086;51.702;-1.106;2022-08-05T08:37:45;101543.50;;;18.04;48.78
45350;BME280;31086;51.702;-1.106;2022-08-05T08:40:12;101544.95;;;17.67;48.48
45350;BME280;31086;51.702;-1.106;2022-08-05T08:42:40;101547.27;;;17.62;48.26
45350;BME280;31086;51.702;-1.106;2022-08-05T08:45:09;101554.72;;;18.17;47.02
45350;BME280;31086;51.702;-1.106;2022-08-05T08:47:38;101553.37;;;17.06;48.76
45350;BME280;31086;51.702;-1.106;2022-08-05T08:50:06;101556.57;;;17.51;48.70
45350;BME280;31086;51.702;-1.106;2022-08-05T08:52:34;101556.33;;;17.52;48.30
45350;BME280;31086;51.702;-1.106;2022-08-05T08:55:03;101547.77;;;18.64;47.53
45350;BME280;31086;51.702;-1.106;2022-08-05T08:57:33;101548.20;;;18.09;46.92
45350;BME280;31086;51.702;-1.106;2022-08-05T09:00:01;101542.75;;;18.13;46.76
45350;BME280;31086;51.702;-1.106;2022-08-05T09:02:29;101544.56;;;18.39;46.15
45350;BME280;31086;51.702;-1.106;2022-08-05T09:04:57;101548.01;;;18.10;45.69
45350;BME280;31086;51.702;-1.106;2022-08-05T09:07:24;101557.67;;;17.49;46.72
45350;BME280;31086;51.702;-1.106;2022-08-05T09:09:51;101556.34;;;18.15;45.91
45350;BME280;31086;51.702;-1.106;2022-08-05T09:12:19;101557.79;;;17.60;47.16
45350;BME280;31086;51.702;-1.106;2022-08-05T09:14:46;101548.53;;;18.23;45.98
45350;BME280;31086;51.702;-1.106;2022-08-05T09:17:14;101561.43;;;17.95;46.78
45350;BME280;31086;51.702;-1.106;2022-08-05T09:19:41;101556.17;;;18.04;45.50
45350;BME280;31086;51.702;-1.106;2022-08-05T09:22:08;101554.73;;;17.30;46.62
45350;BME280;31086;51.702;-1.106;2022-08-05T09:24:35;101554.58;;;17.48;45.62
45350;BME280;31086;51.702;-1.106;2022-08-05T09:27:07;101550.44;;;17.84;45.26
45350;BME280;31086;51.702;-1.106;2022-08-05T09:29:38;101546.74;;;18.28;45.19
45350;BME280;31086;51.702;-1.106;2022-08-05T09:32:06;101548.22;;;18.48;44.83
45350;BME280;31086;51.702;-1.106;2022-08-05T09:34:52;101540.13;;;18.04;43.68
45350;BME280;31086;51.702;-1.106;2022-08-05T09:37:22;101547.31;;;18.83;42.84
45350;BME280;31086;51.702;-1.106;2022-08-05T09:39:49;101544.60;;;18.99;42.42
45350;BME280;31086;51.702;-1.106;2022-08-05T09:42:18;101548.27;;;19.11;42.73
45350;BME280;31086;51.702;-1.106;2022-08-05T09:44:50;101542.78;;;18.94;42.79
45350;BME280;31086;51.702;-1.106;2022-08-05T09:47:20;101546.41;;;18.57;42.70
45350;BME280;31086;51.702;-1.106;2022-08-05T09:49:49;101553.21;;;17.92;43.02
45350;BME280;31086;51.702;-1.106;2022-08-05T09:52:20;101547.37;;;18.61;43.73
45350;BME280;31086;51.702;-1.106;2022-08-05T09:54:52;101547.39;;;18.27;43.23
45350;BME280;31086;51.702;-1.106;2022-08-05T09:57:37;101551.35;;;18.33;42.76
45350;BME280;31086;51.702;-1.106;2022-08-05T10:00:09;101554.37;;;17.44;44.33
45350;BME280;31086;51.702;-1.106;2022-08-05T10:02:38;101547.84;;;18.00;43.36
45350;BME280;31086;51.702;-1.106;2022-08-05T10:05:09;101550.23;;;18.29;42.29
45350;BME280;31086;51.702;-1.106;2022-08-05T10:07:48;101551.57;;;18.07;42.15
45350;BME280;31086;51.702;-1.106;2022-08-05T10:10:17;101551.10;;;18.24;42.25
45350;BME280;31086;51.702;-1.106;2022-08-05T10:12:48;101545.24;;;18.72;40.82
45350;BME280;31086;51.702;-1.106;2022-08-05T10:15:18;101551.37;;;18.66;41.06
45350;BME280;31086;51.702;-1.106;2022-08-05T10:18:06;101552.39;;;17.80;41.74
45350;BME280;31086;51.702;-1.106;2022-08-05T10:20:35;101561.83;;;17.72;42.06
45350;BME280;31086;51.702;-1.106;2022-08-05T10:23:03;101553.53;;;18.32;42.18
45350;BME280;31086;51.702;-1.106;2022-08-05T10:25:31;101554.61;;;18.39;42.34
45350;BME280;31086;51.702;-1.106;2022-08-05T10:28:01;101557.66;;;18.49;41.90
45350;BME280;31086;51.702;-1.106;2022-08-05T10:30:29;101564.33;;;18.15;41.86
45350;BME280;31086;51.702;-1.106;2022-08-05T10:32:57;101565.42;;;18.01;41.22
45350;BME280;31086;51.702;-1.106;2022-08-05T10:35:25;101561.18;;;18.47;41.93
45350;BME280;31086;51.702;-1.106;2022-08-05T10:37:53;101562.24;;;18.36;41.50
45350;BME280;31086;51.702;-1.106;2022-08-05T10:40:28;101564.83;;;18.86;40.96
45350;BME280;31086;51.702;-1.106;2022-08-05T10:43:03;101559.97;;;19.01;40.88
45350;BME280;31086;51.702;-1.106;2022-08-05T10:45:34;101570.78;;;18.29;41.16
45350;BME280;31086;51.702;-1.106;2022-08-05T10:48:28;101577.75;;;18.44;41.36
45350;BME280;31086;51.702;-1.106;2022-08-05T10:50:58;101571.92;;;18.55;41.55
45350;BME280;31086;51.702;-1.106;2022-08-05T10:53:34;101575.30;;;19.53;41.01
45350;BME280;31086;51.702;-1.106;2022-08-05T10:56:04;101571.24;;;19.36;40.50
45350;BME280;31086;51.702;-1.106;2022-08-05T10:58:32;101578.11;;;19.70;40.32
45350;BME280;31086;51.702;-1.106;2022-08-05T11:01:03;101578.88;;;19.69;40.13
45350;BME280;31086;51.702;-1.106;2022-08-05T11:03:31;101582.50;;;18.58;40.71
45350;BME280;31086;51.702;-1.106;2022-08-05T11:06:04;101583.49;;;18.95;40.57
45350;BME280;31086;51.702;-1.106;2022-08-05T11:08:32;101587.37;;;19.57;40.58
45350;BME280;31086;51.702;-1.106;2022-08-05T11:11:31;101580.48;;;19.32;39.87
45350;BME280;31086;51.702;-1.106;2022-08-05T11:14:00;101591.84;;;18.82;40.08
45350;BME280;31086;51.702;-1.106;2022-08-05T11:16:28;101593.44;;;19.46;40.12
45350;BME280;31086;51.702;-1.106;2022-08-05T11:19:29;101585.88;;;19.64;39.85
45350;BME280;31086;51.702;-1.106;2022-08-05T11:22:38;101587.56;;;19.91;39.09
45350;BME280;31086;51.702;-1.106;2022-08-05T11:25:38;101585.62;;;19.50;40.04
45350;BME280;31086;51.702;-1.106;2022-08-05T11:28:40;101600.43;;;19.04;40.26
45350;BME280;31086;51.702;-1.106;2022-08-05T11:31:27;101605.60;;;18.86;39.93
45350;BME280;31086;51.702;-1.106;2022-08-05T11:33:57;101596.73;;;19.57;39.79
45350;BME280;31086;51.702;-1.106;2022-08-05T11:36:44;101599.29;;;20.20;39.57
45350;BME280;31086;51.702;-1.106;2022-08-05T11:39:12;101600.77;;;20.84;39.70
45350;BME280;31086;51.702;-1.106;2022-08-05T11:41:40;101608.92;;;21.05;38.26
45350;BME280;31086;51.702;-1.106;2022-08-05T11:44:09;101608.87;;;21.19;37.47
45350;BME280;31086;51.702;-1.106;2022-08-05T11:46:38;101608.09;;;21.08;37.46
45350;BME280;31086;51.702;-1.106;2022-08-05T11:49:11;101602.40;;;21.25;37.59
45350;BME280;31086;51.702;-1.106;2022-08-05T11:51:40;101608.09;;;20.36;38.09
45350;BME280;31086;51.702;-1.106;2022-08-05T11:54:08;101598.36;;;21.29;37.39
45350;BME280;31086;51.702;-1.106;2022-08-05T11:56:45;101602.29;;;21.45;37.16
45350;BME280;31086;51.702;-1.106;2022-08-05T11:59:15;101603.26;;;20.86;37.51
45350;BME280;31086;51.702;-1.106;2022-08-05T12:02:04;101599.39;;;21.41;37.29
45350;BME280;31086;51.702;-1.106;2022-08-05T12:04:38;101603.95;;;21.69;37.01
45350;BME280;31086;51.702;-1.106;2022-08-05T12:07:07;101599.89;;;21.70;37.03
45350;BME280;31086;51.702;-1.106;2022-08-05T12:09:37;101605.55;;;21.78;36.66
45350;BME280;31086;51.702;-1.106;2022-08-05T12:12:05;101604.49;;;21.85;36.56
45350;BME280;31086;51.702;-1.106;2022-08-05T12:14:37;101608.33;;;21.01;37.52
45350;BME280;31086;51.702;-1.106;2022-08-05T12:17:08;101605.97;;;20.87;37.65
45350;BME280;31086;51.702;-1.106;2022-08-05T12:19:45;101605.63;;;21.19;37.11
45350;BME280;31086;51.702;-1.106;2022-08-05T12:22:13;101602.79;;;21.69;36.97
45350;BME280;31086;51.702;-1.106;2022-08-05T12:24:42;101606.16;;;21.32;36.75
45350;BME280;31086;51.702;-1.106;2022-08-05T12:27:18;101607.67;;;21.50;36.66
45350;BME280;31086;51.702;-1.106;2022-08-05T12:29:45;101605.68;;;21.45;36.90
45350;BME280;31086;51.702;-1.106;2022-08-05T12:32:23;101610.83;;;22.21;36.72
45350;BME280;31086;51.702;-1.106;2022-08-05T12:34:50;101617.04;;;22.01;37.40
45350;BME280;31086;51.702;-1.106;2022-08-05T12:37:17;101618.03;;;21.98;36.42
45350;BME280;31086;51.702;-1.106;2022-08-05T12:39:45;101619.66;;;21.10;36.47
45350;BME280;31086;51.702;-1.106;2022-08-05T12:42:15;101619.41;;;21.56;36.74
45350;BME280;31086;51.702;-1.106;2022-08-05T12:44:44;101626.96;;;22.29;35.99
45350;BME280;31086;51.702;-1.106;2022-08-05T12:47:12;101629.11;;;22.00;36.62
45350;BME280;31086;51.702;-1.106;2022-08-05T12:49:41;101630.01;;;21.81;36.45
45350;BME280;31086;51.702;-1.106;2022-08-05T12:52:12;101625.33;;;21.16;37.37